sensor_id;sensor_type;location;lat;lon;timestamp;P1;durP1;ratioP1;P2;durP2;ratioP2
29712;SDS011;16623;53.632;10.016;2023-01-26T00:00:49;102.00;;;39.30;;
29712;SDS011;16623;53.632;10.016;2023-01-26T00:03:15;104.32;;;40.00;;
29712;SDS011;16623;53.632;10.016;2023-01-26T00:05:41;99.75;;;36.80;;
29712;SDS011;16623;53.632;10.016;2023-01-26T00:08:07;99.70;;;39.80;;
29712;SDS011;16623;53.632;10.016;2023-01-26T00:10:34;100.53;;;37.78;;
29712;SDS011;16623;53.632;10.016;2023-01-26T00:13:01;107.97;;;38.55;;
29712;SDS011;16623;53.632;10.016;2023-01-26T00:15:27;104.18;;;38.97;;
29712;SDS011;16623;53.632;10.016;2023-01-26T00:17:52;102.70;;;41.40;;
29712;SDS011;16623;53.632;10.016;2023-01-26T00:20:18;96.57;;;34.53;;
29712;SDS011;16623;53.632;10.016;2023-01-26T00:22:44;93.05;;;36.58;;
29712;SDS011;16623;53.632;10.016;2023-01-26T00:25:09;110.68;;;41.13;;
29712;SDS011;16623;53.632;10.016;2023-01-26T00:27:35;99.88;;;38.20;;
29712;SDS011;16623;53.632;10.016;2023-01-26T00:30:00;113.07;;;40.63;;
29712;SDS011;16623;53.632;10.016;2023-01-26T00:32:26;104.25;;;41.25;;
29712;SDS011;16623;53.632;10.016;2023-01-26T00:34:51;100.70;;;38.10;;
29712;SDS011;16623;53.632;10.016;2023-01-26T00:37:17;94.68;;;37.70;;
29712;SDS011;16623;53.632;10.016;2023-01-26T00:39:42;97.90;;;37.85;;
29712;SDS011;16623;53.632;10.016;2023-01-26T00:42:09;88.38;;;36.60;;
29712;SDS011;16623;53.632;10.016;2023-01-26T00:44:36;87.47;;;34.10;;
29712;SDS011;16623;53.632;10.016;2023-01-26T00:47:02;88.63;;;33.30;;
29712;SDS011;16623;53.632;10.016;2023-01-26T00:49:28;87.05;;;32.90;;
29712;SDS011;16623;53.632;10.016;2023-01-26T00:51:57;81.78;;;30.25;;
29712;SDS011;16623;53.632;10.016;2023-01-26T00:54:23;81.57;;;33.03;;
29712;SDS011;16623;53.632;10.016;2023-01-26T00:56:48;75.25;;;31.60;;
29712;SDS011;16623;53.632;10.016;2023-01-26T00:59:14;83.68;;;33.03;;
29712;SDS011;16623;53.632;10.016;2023-01-26T01:01:39;84.15;;;33.92;;
29712;SDS011;16623;53.632;10.016;2023-01-26T01:04:05;76.65;;;32.20;;
29712;SDS011;16623;53.632;10.016;2023-01-26T01:06:30;82.35;;;32.40;;
29712;SDS011;16623;53.632;10.016;2023-01-26T01:08:56;79.55;;;33.05;;
29712;SDS011;16623;53.632;10.016;2023-01-26T01:11:21;86.18;;;33.17;;
29712;SDS011;16623;53.632;10.016;2023-01-26T01:13:47;77.85;;;30.05;;
29712;SDS011;16623;53.632;10.016;2023-01-26T01:16:13;84.63;;;35.33;;
29712;SDS011;16623;53.632;10.016;2023-01-26T01:18:40;86.65;;;33.55;;
29712;SDS011;16623;53.632;10.016;2023-01-26T01:21:06;79.28;;;33.20;;
29712;SDS011;16623;53.632;10.016;2023-01-26T01:23:37;72.18;;;30.08;;
29712;SDS011;16623;53.632;10.016;2023-01-26T01:26:03;89.57;;;36.63;;
29712;SDS011;16623;53.632;10.016;2023-01-26T01:28:29;83.38;;;32.67;;
29712;SDS011;16623;53.632;10.016;2023-01-26T01:30:55;88.88;;;33.20;;
29712;SDS011;16623;53.632;10.016;2023-01-26T01:33:21;89.40;;;34.88;;
29712;SDS011;16623;53.632;10.016;2023-01-26T01:36:00;84.70;;;34.28;;
29712;SDS011;16623;53.632;10.016;2023-01-26T01:38:28;84.43;;;32.38;;
29712;SDS011;16623;53.632;10.016;2023-01-26T01:40:54;89.43;;;34.30;;
29712;SDS011;16623;53.632;10.016;2023-01-26T01:43:21;81.30;;;31.75;;
29712;SDS011;16623;53.632;10.016;2023-01-26T01:45:47;80.25;;;32.38;;
29712;SDS011;16623;53.632;10.016;2023-01-26T01:48:22;75.90;;;30.27;;
29712;SDS011;16623;53.632;10.016;2023-01-26T01:50:53;90.22;;;34.63;;
29712;SDS011;16623;53.632;10.016;2023-01-26T01:53:25;85.13;;;32.92;;
29712;SDS011;16623;53.632;10.016;2023-01-26T01:55:55;83.13;;;33.95;;
29712;SDS011;16623;53.632;10.016;2023-01-26T01:58:28;82.47;;;31.97;;
29712;SDS011;16623;53.632;10.016;2023-01-26T02:00:57;76.68;;;32.47;;
29712;SDS011;16623;53.632;10.016;2023-01-26T02:03:23;74.22;;;32.83;;
29712;SDS011;16623;53.632;10.016;2023-01-26T02:08:28;85.05;;;33.65;;
29712;SDS011;16623;53.632;10.016;2023-01-26T02:10:58;77.85;;;32.05;;
29712;SDS011;16623;53.632;10.016;2023-01-26T02:13:28;83.22;;;33.83;;
29712;SDS011;16623;53.632;10.016;2023-01-26T02:15:55;83.93;;;33.50;;
29712;SDS011;16623;53.632;10.016;2023-01-26T02:18:23;79.05;;;31.95;;
29712;SDS011;16623;53.632;10.016;2023-01-26T02:20:49;73.55;;;32.42;;
29712;SDS011;16623;53.632;10.016;2023-01-26T02:26:14;85.10;;;33.90;;
29712;SDS011;16623;53.632;10.016;2023-01-26T02:28:43;79.63;;;32.80;;
29712;SDS011;16623;53.632;10.016;2023-01-26T02:31:11;75.13;;;32.45;;
29712;SDS011;16623;53.632;10.016;2023-01-26T02:33:38;78.78;;;32.10;;
29712;SDS011;16623;53.632;10.016;2023-01-26T02:36:04;82.70;;;31.13;;
29712;SDS011;16623;53.632;10.016;2023-01-26T02:38:41;79.85;;;32.17;;
29712;SDS011;16623;53.632;10.016;2023-01-26T02:41:12;76.57;;;32.30;;
29712;SDS011;16623;53.632;10.016;2023-01-26T02:44:00;75.85;;;29.52;;
29712;SDS011;16623;53.632;10.016;2023-01-26T02:46:28;81.97;;;30.42;;
29712;SDS011;16623;53.632;10.016;2023-01-26T02:48:53;67.88;;;29.33;;
29712;SDS011;16623;53.632;10.016;2023-01-26T02:51:38;72.25;;;31.88;;
29712;SDS011;16623;53.632;10.016;2023-01-26T02:54:03;67.90;;;30.00;;
29712;SDS011;16623;53.632;10.016;2023-01-26T02:56:29;70.40;;;29.55;;
29712;SDS011;16623;53.632;10.016;2023-01-26T02:58:54;67.88;;;29.02;;
29712;SDS011;16623;53.632;10.016;2023-01-26T03:01:20;66.28;;;27.95;;
29712;SDS011;16623;53.632;10.016;2023-01-26T03:03:45;70.80;;;28.17;;
29712;SDS011;16623;53.632;10.016;2023-01-26T03:06:11;67.00;;;28.23;;
29712;SDS011;16623;53.632;10.016;2023-01-26T03:08:37;64.32;;;27.08;;
29712;SDS011;16623;53.632;10.016;2023-01-26T03:11:04;64.13;;;26.88;;
29712;SDS011;16623;53.632;10.016;2023-01-26T03:13:30;68.15;;;26.05;;
29712;SDS011;16623;53.632;10.016;2023-01-26T03:15:55;67.32;;;26.98;;
29712;SDS011;16623;53.632;10.016;2023-01-26T03:18:26;65.07;;;26.60;;
29712;SDS011;16623;53.632;10.016;2023-01-26T03:21:11;74.38;;;29.67;;
29712;SDS011;16623;53.632;10.016;2023-01-26T03:23:58;69.15;;;26.35;;
29712;SDS011;16623;53.632;10.016;2023-01-26T03:26:43;69.82;;;28.52;;
29712;SDS011;16623;53.632;10.016;2023-01-26T03:29:27;64.30;;;28.38;;
29712;SDS011;16623;53.632;10.016;2023-01-26T03:31:53;71.53;;;29.23;;
29712;SDS011;16623;53.632;10.016;2023-01-26T03:34:19;71.82;;;26.90;;
29712;SDS011;16623;53.632;10.016;2023-01-26T03:36:45;64.70;;;28.58;;
29712;SDS011;16623;53.632;10.016;2023-01-26T03:39:11;64.35;;;27.77;;
29712;SDS011;16623;53.632;10.016;2023-01-26T03:41:56;69.70;;;28.65;;
29712;SDS011;16623;53.632;10.016;2023-01-26T03:44:41;64.75;;;27.35;;
29712;SDS011;16623;53.632;10.016;2023-01-26T03:47:24;71.03;;;30.52;;
29712;SDS011;16623;53.632;10.016;2023-01-26T03:50:09;67.85;;;29.60;;
29712;SDS011;16623;53.632;10.016;2023-01-26T03:52:53;73.15;;;28.38;;
29712;SDS011;16623;53.632;10.016;2023-01-26T03:55:37;79.72;;;28.30;;
29712;SDS011;16623;53.632;10.016;2023-01-26T03:58:21;67.15;;;27.00;;
29712;SDS011;16623;53.632;10.016;2023-01-26T04:00:48;72.93;;;29.98;;
29712;SDS011;16623;53.632;10.016;2023-01-26T04:03:14;77.80;;;29.70;;
29712;SDS011;16623;53.632;10.016;2023-01-26T04:05:58;74.07;;;30.20;;
29712;SDS011;16623;53.632;10.016;2023-01-26T04:08:42;71.33;;;28.23;;
29712;SDS011;16623;53.632;10.016;2023-01-26T04:11:11;72.95;;;29.90;;
29712;SDS011;16623;53.632;10.016;2023-01-26T04:13:37;68.35;;;28.25;;
29712;SDS011;16623;53.632;10.016;2023-01-26T04:16:21;76.60;;;29.40;;
29712;SDS011;16623;53.632;10.016;2023-01-26T04:19:06;71.13;;;29.15;;
29712;SDS011;16623;53.632;10.016;2023-01-26T04:21:50;75.27;;;28.93;;
29712;SDS011;16623;53.632;10.016;2023-01-26T04:24:15;72.70;;;29.63;;
29712;SDS011;16623;53.632;10.016;2023-01-26T04:26:41;65.50;;;28.50;;
29712;SDS011;16623;53.632;10.016;2023-01-26T04:29:08;64.65;;;26.38;;
29712;SDS011;16623;53.632;10.016;2023-01-26T04:31:35;67.00;;;27.85;;
29712;SDS011;16623;53.632;10.016;2023-01-26T04:34:02;71.43;;;30.90;;
29712;SDS011;16623;53.632;10.016;2023-01-26T04:36:29;62.95;;;26.63;;
29712;SDS011;16623;53.632;10.016;2023-01-26T04:38:56;67.40;;;27.90;;
29712;SDS011;16623;53.632;10.016;2023-01-26T04:41:21;65.53;;;26.80;;
29712;SDS011;16623;53.632;10.016;2023-01-26T04:43:47;65.38;;;26.88;;
29712;SDS011;16623;53.632;10.016;2023-01-26T04:46:13;56.90;;;23.45;;
29712;SDS011;16623;53.632;10.016;2023-01-26T04:48:39;64.90;;;27.23;;
29712;SDS011;16623;53.632;10.016;2023-01-26T04:51:14;64.10;;;26.75;;
29712;SDS011;16623;53.632;10.016;2023-01-26T04:53:42;67.82;;;25.92;;
29712;SDS011;16623;53.632;10.016;2023-01-26T04:56:12;53.05;;;22.83;;
29712;SDS011;16623;53.632;10.016;2023-01-26T04:58:49;69.35;;;27.70;;
29712;SDS011;16623;53.632;10.016;2023-01-26T05:01:15;64.18;;;25.58;;
29712;SDS011;16623;53.632;10.016;2023-01-26T05:03:41;58.83;;;24.35;;
29712;SDS011;16623;53.632;10.016;2023-01-26T05:06:06;62.75;;;25.27;;
29712;SDS011;16623;53.632;10.016;2023-01-26T05:08:32;59.83;;;25.10;;
29712;SDS011;16623;53.632;10.016;2023-01-26T05:10:58;60.20;;;24.38;;
29712;SDS011;16623;53.632;10.016;2023-01-26T05:13:23;56.25;;;24.15;;
29712;SDS011;16623;53.632;10.016;2023-01-26T05:15:49;58.95;;;23.02;;
29712;SDS011;16623;53.632;10.016;2023-01-26T05:18:14;52.20;;;22.27;;
29712;SDS011;16623;53.632;10.016;2023-01-26T05:20:40;46.17;;;22.05;;
29712;SDS011;16623;53.632;10.016;2023-01-26T05:23:05;51.92;;;22.48;;
29712;SDS011;16623;53.632;10.016;2023-01-26T05:25:31;52.38;;;23.67;;
29712;SDS011;16623;53.632;10.016;2023-01-26T05:27:56;50.60;;;21.15;;
29712;SDS011;16623;53.632;10.016;2023-01-26T05:30:22;53.35;;;22.08;;
29712;SDS011;16623;53.632;10.016;2023-01-26T05:32:47;52.30;;;21.83;;
29712;SDS011;16623;53.632;10.016;2023-01-26T05:35:13;52.10;;;23.10;;
29712;SDS011;16623;53.632;10.016;2023-01-26T05:37:38;53.42;;;21.08;;
29712;SDS011;16623;53.632;10.016;2023-01-26T05:40:06;49.70;;;23.58;;
29712;SDS011;16623;53.632;10.016;2023-01-26T05:42:33;53.65;;;21.50;;
29712;SDS011;16623;53.632;10.016;2023-01-26T05:44:58;54.75;;;22.23;;
29712;SDS011;16623;53.632;10.016;2023-01-26T05:47:24;46.70;;;21.38;;
29712;SDS011;16623;53.632;10.016;2023-01-26T05:49:50;49.05;;;21.33;;
29712;SDS011;16623;53.632;10.016;2023-01-26T05:52:16;50.35;;;21.23;;
29712;SDS011;16623;53.632;10.016;2023-01-26T05:54:43;57.35;;;21.50;;
29712;SDS011;16623;53.632;10.016;2023-01-26T05:57:08;52.80;;;21.92;;
29712;SDS011;16623;53.632;10.016;2023-01-26T05:59:34;47.58;;;20.52;;
29712;SDS011;16623;53.632;10.016;2023-01-26T06:02:00;56.13;;;23.15;;
29712;SDS011;16623;53.632;10.016;2023-01-26T06:04:26;50.95;;;22.73;;
29712;SDS011;16623;53.632;10.016;2023-01-26T06:06:55;53.83;;;24.83;;
29712;SDS011;16623;53.632;10.016;2023-01-26T06:09:22;49.67;;;21.90;;
29712;SDS011;16623;53.632;10.016;2023-01-26T06:11:48;47.42;;;22.70;;
29712;SDS011;16623;53.632;10.016;2023-01-26T06:14:14;47.83;;;21.33;;
29712;SDS011;16623;53.632;10.016;2023-01-26T06:16:39;48.53;;;20.92;;
29712;SDS011;16623;53.632;10.016;2023-01-26T06:19:05;51.55;;;22.45;;
29712;SDS011;16623;53.632;10.016;2023-01-26T06:21:31;47.33;;;20.20;;
29712;SDS011;16623;53.632;10.016;2023-01-26T06:23:57;45.85;;;21.27;;
29712;SDS011;16623;53.632;10.016;2023-01-26T06:26:24;44.72;;;19.38;;
29712;SDS011;16623;53.632;10.016;2023-01-26T06:28:50;52.53;;;19.70;;
29712;SDS011;16623;53.632;10.016;2023-01-26T06:31:16;45.45;;;20.35;;
29712;SDS011;16623;53.632;10.016;2023-01-26T06:33:42;43.55;;;19.17;;
29712;SDS011;16623;53.632;10.016;2023-01-26T06:36:09;44.10;;;19.80;;
29712;SDS011;16623;53.632;10.016;2023-01-26T06:38:36;41.30;;;18.95;;
29712;SDS011;16623;53.632;10.016;2023-01-26T06:41:03;42.08;;;19.15;;
29712;SDS011;16623;53.632;10.016;2023-01-26T06:43:30;45.60;;;19.60;;
29712;SDS011;16623;53.632;10.016;2023-01-26T06:45:57;39.70;;;19.38;;
29712;SDS011;16623;53.632;10.016;2023-01-26T06:48:26;45.65;;;18.20;;
29712;SDS011;16623;53.632;10.016;2023-01-26T06:50:55;45.55;;;19.17;;
29712;SDS011;16623;53.632;10.016;2023-01-26T06:53:28;42.65;;;18.42;;
29712;SDS011;16623;53.632;10.016;2023-01-26T06:55:56;40.20;;;18.52;;
29712;SDS011;16623;53.632;10.016;2023-01-26T06:58:22;37.65;;;17.40;;
29712;SDS011;16623;53.632;10.016;2023-01-26T07:00:48;42.63;;;18.63;;
29712;SDS011;16623;53.632;10.016;2023-01-26T07:03:13;48.17;;;21.38;;
29712;SDS011;16623;53.632;10.016;2023-01-26T07:05:39;42.08;;;19.67;;
29712;SDS011;16623;53.632;10.016;2023-01-26T07:08:05;42.47;;;19.23;;
29712;SDS011;16623;53.632;10.016;2023-01-26T07:10:32;40.72;;;18.27;;
29712;SDS011;16623;53.632;10.016;2023-01-26T07:12:58;46.65;;;19.60;;
29712;SDS011;16623;53.632;10.016;2023-01-26T07:15:24;44.45;;;20.02;;
29712;SDS011;16623;53.632;10.016;2023-01-26T07:17:49;47.50;;;18.63;;
29712;SDS011;16623;53.632;10.016;2023-01-26T07:20:15;38.35;;;17.10;;
29712;SDS011;16623;53.632;10.016;2023-01-26T07:22:40;44.03;;;18.92;;
29712;SDS011;16623;53.632;10.016;2023-01-26T07:25:06;48.83;;;20.42;;
29712;SDS011;16623;53.632;10.016;2023-01-26T07:27:32;41.97;;;17.70;;
29712;SDS011;16623;53.632;10.016;2023-01-26T07:29:57;42.17;;;19.45;;
29712;SDS011;16623;53.632;10.016;2023-01-26T07:32:23;43.83;;;19.38;;
29712;SDS011;16623;53.632;10.016;2023-01-26T07:34:48;39.35;;;17.58;;
29712;SDS011;16623;53.632;10.016;2023-01-26T07:37:14;42.90;;;19.77;;
29712;SDS011;16623;53.632;10.016;2023-01-26T07:39:39;44.50;;;17.42;;
29712;SDS011;16623;53.632;10.016;2023-01-26T07:42:05;42.22;;;18.73;;
29712;SDS011;16623;53.632;10.016;2023-01-26T07:44:30;37.45;;;18.17;;
29712;SDS011;16623;53.632;10.016;2023-01-26T07:46:56;41.47;;;18.92;;
29712;SDS011;16623;53.632;10.016;2023-01-26T07:49:22;43.08;;;18.27;;
29712;SDS011;16623;53.632;10.016;2023-01-26T07:51:47;44.35;;;19.17;;
29712;SDS011;16623;53.632;10.016;2023-01-26T07:54:13;37.78;;;16.85;;
29712;SDS011;16623;53.632;10.016;2023-01-26T07:56:38;44.97;;;19.13;;
29712;SDS011;16623;53.632;10.016;2023-01-26T07:59:04;36.45;;;16.45;;
29712;SDS011;16623;53.632;10.016;2023-01-26T08:01:29;44.25;;;17.52;;
29712;SDS011;16623;53.632;10.016;2023-01-26T08:03:55;41.90;;;17.90;;
29712;SDS011;16623;53.632;10.016;2023-01-26T08:06:20;40.53;;;18.88;;
29712;SDS011;16623;53.632;10.016;2023-01-26T08:08:46;40.00;;;19.40;;
29712;SDS011;16623;53.632;10.016;2023-01-26T08:11:20;42.05;;;17.25;;
29712;SDS011;16623;53.632;10.016;2023-01-26T08:13:47;42.42;;;17.42;;
29712;SDS011;16623;53.632;10.016;2023-01-26T08:16:13;40.90;;;18.25;;
29712;SDS011;16623;53.632;10.016;2023-01-26T08:18:42;40.95;;;16.60;;
29712;SDS011;16623;53.632;10.016;2023-01-26T08:21:10;40.20;;;17.08;;
29712;SDS011;16623;53.632;10.016;2023-01-26T08:23:36;44.65;;;18.17;;
29712;SDS011;16623;53.632;10.016;2023-01-26T08:26:03;43.42;;;16.40;;
29712;SDS011;16623;53.632;10.016;2023-01-26T08:28:31;42.10;;;18.60;;
29712;SDS011;16623;53.632;10.016;2023-01-26T08:31:02;44.30;;;17.40;;
29712;SDS011;16623;53.632;10.016;2023-01-26T08:33:29;34.97;;;15.63;;
29712;SDS011;16623;53.632;10.016;2023-01-26T08:35:59;41.08;;;16.35;;
29712;SDS011;16623;53.632;10.016;2023-01-26T08:38:25;35.65;;;15.38;;
29712;SDS011;16623;53.632;10.016;2023-01-26T08:40:53;34.80;;;15.23;;
29712;SDS011;16623;53.632;10.016;2023-01-26T08:43:18;31.75;;;14.82;;
29712;SDS011;16623;53.632;10.016;2023-01-26T08:45:45;32.78;;;15.63;;
29712;SDS011;16623;53.632;10.016;2023-01-26T08:48:13;30.73;;;13.50;;
29712;SDS011;16623;53.632;10.016;2023-01-26T08:50:38;31.05;;;14.13;;
29712;SDS011;16623;53.632;10.016;2023-01-26T08:53:04;30.35;;;14.65;;
29712;SDS011;16623;53.632;10.016;2023-01-26T08:55:29;29.67;;;12.70;;
29712;SDS011;16623;53.632;10.016;2023-01-26T08:57:56;32.70;;;14.25;;
29712;SDS011;16623;53.632;10.016;2023-01-26T09:00:22;33.72;;;14.73;;
29712;SDS011;16623;53.632;10.016;2023-01-26T09:02:49;28.25;;;12.98;;
29712;SDS011;16623;53.632;10.016;2023-01-26T09:05:15;34.95;;;12.32;;
29712;SDS011;16623;53.632;10.016;2023-01-26T09:07:41;28.25;;;13.65;;
29712;SDS011;16623;53.632;10.016;2023-01-26T09:10:06;35.47;;;13.40;;
29712;SDS011;16623;53.632;10.016;2023-01-26T09:12:32;33.60;;;13.35;;
29712;SDS011;16623;53.632;10.016;2023-01-26T09:14:58;31.73;;;12.63;;
29712;SDS011;16623;53.632;10.016;2023-01-26T09:17:23;26.73;;;11.95;;
29712;SDS011;16623;53.632;10.016;2023-01-26T09:19:49;24.02;;;11.63;;
29712;SDS011;16623;53.632;10.016;2023-01-26T09:22:14;25.58;;;12.07;;
29712;SDS011;16623;53.632;10.016;2023-01-26T09:24:40;31.10;;;12.77;;
29712;SDS011;16623;53.632;10.016;2023-01-26T09:27:05;28.98;;;13.35;;
29712;SDS011;16623;53.632;10.016;2023-01-26T09:29:31;30.85;;;13.52;;
29712;SDS011;16623;53.632;10.016;2023-01-26T09:31:56;28.30;;;12.57;;
29712;SDS011;16623;53.632;10.016;2023-01-26T09:34:22;30.70;;;13.43;;
29712;SDS011;16623;53.632;10.016;2023-01-26T09:36:49;40.47;;;16.52;;
29712;SDS011;16623;53.632;10.016;2023-01-26T09:39:14;33.47;;;12.38;;
29712;SDS011;16623;53.632;10.016;2023-01-26T09:44:29;24.58;;;11.65;;
29712;SDS011;16623;53.632;10.016;2023-01-26T09:47:07;32.85;;;12.70;;
29712;SDS011;16623;53.632;10.016;2023-01-26T09:49:49;26.58;;;12.63;;
29712;SDS011;16623;53.632;10.016;2023-01-26T09:54:51;30.90;;;12.80;;
29712;SDS011;16623;53.632;10.016;2023-01-26T09:57:24;34.67;;;15.20;;
29712;SDS011;16623;53.632;10.016;2023-01-26T10:00:06;30.20;;;12.15;;
29712;SDS011;16623;53.632;10.016;2023-01-26T10:08:25;27.80;;;13.38;;
29712;SDS011;16623;53.632;10.016;2023-01-26T10:10:52;34.53;;;14.00;;
29712;SDS011;16623;53.632;10.016;2023-01-26T10:13:20;27.73;;;12.68;;
29712;SDS011;16623;53.632;10.016;2023-01-26T10:15:47;35.38;;;14.00;;
29712;SDS011;16623;53.632;10.016;2023-01-26T10:18:27;27.17;;;12.82;;
29712;SDS011;16623;53.632;10.016;2023-01-26T10:21:01;34.85;;;14.82;;
29712;SDS011;16623;53.632;10.016;2023-01-26T10:23:30;34.67;;;13.93;;
29712;SDS011;16623;53.632;10.016;2023-01-26T10:26:01;35.13;;;13.82;;
29712;SDS011;16623;53.632;10.016;2023-01-26T10:28:36;34.75;;;13.13;;
29712;SDS011;16623;53.632;10.016;2023-01-26T10:31:04;37.70;;;13.60;;
29712;SDS011;16623;53.632;10.016;2023-01-26T10:33:36;37.95;;;14.25;;
29712;SDS011;16623;53.632;10.016;2023-01-26T10:36:03;39.63;;;14.65;;
29712;SDS011;16623;53.632;10.016;2023-01-26T10:41:02;50.65;;;17.70;;
29712;SDS011;16623;53.632;10.016;2023-01-26T10:43:30;47.60;;;15.60;;
29712;SDS011;16623;53.632;10.016;2023-01-26T10:45:58;50.13;;;15.18;;
29712;SDS011;16623;53.632;10.016;2023-01-26T10:48:26;42.40;;;17.63;;
29712;SDS011;16623;53.632;10.016;2023-01-26T10:50:53;35.05;;;14.95;;
29712;SDS011;16623;53.632;10.016;2023-01-26T10:53:23;43.03;;;15.20;;
29712;SDS011;16623;53.632;10.016;2023-01-26T10:56:05;47.08;;;16.00;;
29712;SDS011;16623;53.632;10.016;2023-01-26T11:01:05;46.00;;;16.48;;
29712;SDS011;16623;53.632;10.016;2023-01-26T11:03:36;49.90;;;14.85;;
29712;SDS011;16623;53.632;10.016;2023-01-26T11:08:41;52.75;;;16.98;;
29712;SDS011;16623;53.632;10.016;2023-01-26T11:11:24;51.78;;;17.95;;
29712;SDS011;16623;53.632;10.016;2023-01-26T11:14:10;49.03;;;15.85;;
29712;SDS011;16623;53.632;10.016;2023-01-26T11:16:39;46.97;;;16.25;;
29712;SDS011;16623;53.632;10.016;2023-01-26T11:19:12;51.47;;;15.88;;
29712;SDS011;16623;53.632;10.016;2023-01-26T11:21:52;47.97;;;16.50;;
29712;SDS011;16623;53.632;10.016;2023-01-26T11:32:49;67.43;;;16.52;;
29712;SDS011;16623;53.632;10.016;2023-01-26T11:35:45;50.88;;;15.45;;
29712;SDS011;16623;53.632;10.016;2023-01-26T11:38:58;49.53;;;17.85;;
29712;SDS011;16623;53.632;10.016;2023-01-26T11:41:43;46.90;;;15.95;;
29712;SDS011;16623;53.632;10.016;2023-01-26T11:44:29;46.47;;;16.15;;
29712;SDS011;16623;53.632;10.016;2023-01-26T11:47:05;50.38;;;17.38;;
29712;SDS011;16623;53.632;10.016;2023-01-26T11:49:51;56.75;;;16.10;;
29712;SDS011;16623;53.632;10.016;2023-01-26T11:55:19;35.65;;;15.10;;
29712;SDS011;16623;53.632;10.016;2023-01-26T11:58:15;47.58;;;15.43;;
29712;SDS011;16623;53.632;10.016;2023-01-26T12:00:46;47.15;;;17.40;;
29712;SDS011;16623;53.632;10.016;2023-01-26T12:06:17;60.58;;;17.60;;
29712;SDS011;16623;53.632;10.016;2023-01-26T12:09:33;48.67;;;16.20;;
29712;SDS011;16623;53.632;10.016;2023-01-26T12:11:48;65.03;;;16.73;;
29712;SDS011;16623;53.632;10.016;2023-01-26T12:14:48;43.20;;;16.70;;
29712;SDS011;16623;53.632;10.016;2023-01-26T12:17:25;38.53;;;15.40;;
29712;SDS011;16623;53.632;10.016;2023-01-26T12:22:32;63.00;;;17.77;;
29712;SDS011;16623;53.632;10.016;2023-01-26T12:25:27;44.40;;;14.98;;
29712;SDS011;16623;53.632;10.016;2023-01-26T12:28:03;47.13;;;17.35;;
29712;SDS011;16623;53.632;10.016;2023-01-26T12:33:26;38.45;;;14.02;;
29712;SDS011;16623;53.632;10.016;2023-01-26T12:36:03;50.58;;;15.77;;
29712;SDS011;16623;53.632;10.016;2023-01-26T12:41:47;48.33;;;16.10;;
29712;SDS011;16623;53.632;10.016;2023-01-26T12:44:54;42.65;;;14.68;;
29712;SDS011;16623;53.632;10.016;2023-01-26T12:47:37;46.05;;;17.65;;
29712;SDS011;16623;53.632;10.016;2023-01-26T12:52:44;54.00;;;17.13;;
29712;SDS011;16623;53.632;10.016;2023-01-26T12:55:21;48.60;;;16.38;;
29712;SDS011;16623;53.632;10.016;2023-01-26T12:58:02;49.10;;;16.75;;
29712;SDS011;16623;53.632;10.016;2023-01-26T13:00:36;47.78;;;16.13;;
29712;SDS011;16623;53.632;10.016;2023-01-26T13:03:04;34.90;;;16.70;;
29712;SDS011;16623;53.632;10.016;2023-01-26T13:05:54;41.67;;;15.18;;
29712;SDS011;16623;53.632;10.016;2023-01-26T13:10:58;31.30;;;13.02;;
29712;SDS011;16623;53.632;10.016;2023-01-26T13:18:48;25.20;;;11.30;;
29712;SDS011;16623;53.632;10.016;2023-01-26T13:21:24;25.58;;;9.50;;
29712;SDS011;16623;53.632;10.016;2023-01-26T13:23:52;23.70;;;10.68;;
29712;SDS011;16623;53.632;10.016;2023-01-26T13:26:19;21.88;;;9.75;;
29712;SDS011;16623;53.632;10.016;2023-01-26T13:31:58;20.45;;;7.88;;
29712;SDS011;16623;53.632;10.016;2023-01-26T13:34:40;18.23;;;8.73;;
29712;SDS011;16623;53.632;10.016;2023-01-26T13:37:16;21.67;;;10.45;;
29712;SDS011;16623;53.632;10.016;2023-01-26T13:39:45;20.70;;;9.77;;
29712;SDS011;16623;53.632;10.016;2023-01-26T13:42:21;24.58;;;9.52;;
29712;SDS011;16623;53.632;10.016;2023-01-26T13:44:52;24.80;;;9.38;;
29712;SDS011;16623;53.632;10.016;2023-01-26T13:47:29;19.02;;;9.13;;
29712;SDS011;16623;53.632;10.016;2023-01-26T13:50:19;22.65;;;8.93;;
29712;SDS011;16623;53.632;10.016;2023-01-26T13:52:48;20.48;;;9.98;;
29712;SDS011;16623;53.632;10.016;2023-01-26T13:55:28;20.98;;;9.88;;
29712;SDS011;16623;53.632;10.016;2023-01-26T13:58:14;21.92;;;9.18;;
29712;SDS011;16623;53.632;10.016;2023-01-26T14:00:41;21.65;;;9.75;;
29712;SDS011;16623;53.632;10.016;2023-01-26T14:03:29;22.23;;;8.73;;
29712;SDS011;16623;53.632;10.016;2023-01-26T14:05:56;19.67;;;7.60;;
29712;SDS011;16623;53.632;10.016;2023-01-26T14:08:28;27.50;;;8.77;;
29712;SDS011;16623;53.632;10.016;2023-01-26T14:10:55;21.02;;;7.88;;
29712;SDS011;16623;53.632;10.016;2023-01-26T14:13:31;19.73;;;8.57;;
29712;SDS011;16623;53.632;10.016;2023-01-26T14:16:00;19.80;;;9.13;;
29712;SDS011;16623;53.632;10.016;2023-01-26T14:18:27;21.65;;;9.52;;
29712;SDS011;16623;53.632;10.016;2023-01-26T14:21:05;20.95;;;8.25;;
29712;SDS011;16623;53.632;10.016;2023-01-26T14:23:56;22.90;;;8.77;;
29712;SDS011;16623;53.632;10.016;2023-01-26T14:26:29;23.95;;;9.07;;
29712;SDS011;16623;53.632;10.016;2023-01-26T14:28:56;20.40;;;9.15;;
29712;SDS011;16623;53.632;10.016;2023-01-26T14:31:24;24.98;;;8.80;;
29712;SDS011;16623;53.632;10.016;2023-01-26T14:33:52;28.10;;;11.00;;
29712;SDS011;16623;53.632;10.016;2023-01-26T14:36:24;21.77;;;9.43;;
29712;SDS011;16623;53.632;10.016;2023-01-26T14:38:53;23.08;;;8.93;;
29712;SDS011;16623;53.632;10.016;2023-01-26T14:41:26;29.50;;;10.35;;
29712;SDS011;16623;53.632;10.016;2023-01-26T14:43:54;27.90;;;11.57;;
29712;SDS011;16623;53.632;10.016;2023-01-26T14:46:23;27.50;;;11.48;;
29712;SDS011;16623;53.632;10.016;2023-01-26T14:49:13;20.33;;;8.65;;
29712;SDS011;16623;53.632;10.016;2023-01-26T14:52:10;27.42;;;10.15;;
29712;SDS011;16623;53.632;10.016;2023-01-26T14:54:47;25.48;;;10.25;;
29712;SDS011;16623;53.632;10.016;2023-01-26T14:57:16;32.47;;;12.30;;
29712;SDS011;16623;53.632;10.016;2023-01-26T14:59:46;31.27;;;12.07;;
29712;SDS011;16623;53.632;10.016;2023-01-26T15:02:14;30.73;;;11.57;;
29712;SDS011;16623;53.632;10.016;2023-01-26T15:05:30;28.65;;;11.63;;
29712;SDS011;16623;53.632;10.016;2023-01-26T15:07:36;30.13;;;11.68;;
29712;SDS011;16623;53.632;10.016;2023-01-26T15:15:36;26.00;;;12.68;;
29712;SDS011;16623;53.632;10.016;2023-01-26T15:20:43;28.17;;;11.18;;
29712;SDS011;16623;53.632;10.016;2023-01-26T15:23:27;26.85;;;11.90;;
29712;SDS011;16623;53.632;10.016;2023-01-26T15:28:28;23.02;;;10.13;;
29712;SDS011;16623;53.632;10.016;2023-01-26T15:30:56;26.90;;;11.27;;
29712;SDS011;16623;53.632;10.016;2023-01-26T15:36:05;26.45;;;11.30;;
29712;SDS011;16623;53.632;10.016;2023-01-26T15:38:44;25.58;;;12.00;;
29712;SDS011;16623;53.632;10.016;2023-01-26T15:41:10;39.83;;;15.63;;